createdAt,value
2023-10-28T00:00:49.325Z,19.29
2023-10-28T00:01:51.258Z,19.21
2023-10-28T00:02:53.091Z,19.26
2023-10-28T00:03:55.480Z,19.26
2023-10-28T00:04:57.385Z,19.25
2023-10-28T00:05:59.087Z,19.25
2023-10-28T00:07:00.798Z,19.24
2023-10-28T00:08:05.621Z,19.23
2023-10-28T00:09:07.354Z,19.24
2023-10-28T00:10:10.775Z,19.23
2023-10-28T00:11:12.609Z,19.23
2023-10-28T00:12:15.499Z,19.22
2023-10-28T00:13:17.346Z,19.19
2023-10-28T00:14:20.789Z,19.14
2023-10-28T00:15:22.571Z,19.17
2023-10-28T00:16:24.383Z,19.22
2023-10-28T00:17:26.284Z,19.20
2023-10-28T00:18:28.004Z,19.20
2023-10-28T00:19:29.835Z,19.20
2023-10-28T00:20:32.240Z,19.20
2023-10-28T00:21:34.523Z,19.20
2023-10-28T00:22:36.287Z,19.20
2023-10-28T00:23:38.747Z,19.18
2023-10-28T00:24:42.827Z,19.19
2023-10-28T00:25:44.746Z,19.19
2023-10-28T00:26:46.600Z,19.17
2023-10-28T00:27:48.339Z,19.14
2023-10-28T00:28:50.554Z,19.18
2023-10-28T00:29:55.511Z,19.04
2023-10-28T00:30:57.251Z,19.18
2023-10-28T00:31:59.054Z,19.16
2023-10-28T00:33:01.201Z,19.16
2023-10-28T00:34:02.938Z,19.13
2023-10-28T00:35:09.193Z,19.15
2023-10-28T00:36:12.480Z,19.16
2023-10-28T00:37:14.359Z,19.08
2023-10-28T00:38:16.113Z,19.14
2023-10-28T00:39:17.850Z,19.14
2023-10-28T00:40:19.800Z,19.13
2023-10-28T00:41:21.658Z,19.14
2023-10-28T00:42:23.526Z,19.13
2023-10-28T00:43:25.470Z,19.12
2023-10-28T00:44:27.291Z,19.06
2023-10-28T00:45:29.541Z,19.11
2023-10-28T00:46:31.595Z,19.11
2023-10-28T00:47:34.970Z,19.08
2023-10-28T00:48:37.869Z,19.11
2023-10-28T00:49:40.910Z,19.09
2023-10-28T00:50:43.434Z,19.08
2023-10-28T00:51:46.730Z,19.01
2023-10-28T00:52:53.761Z,19.08
2023-10-28T00:53:56.474Z,19.11
2023-10-28T00:54:58.885Z,19.08
2023-10-28T00:56:02.810Z,19.07
2023-10-28T00:57:04.919Z,19.00
2023-10-28T00:58:07.595Z,19.05
2023-10-28T00:59:09.429Z,19.07
2023-10-28T01:00:13.226Z,19.06
2023-10-28T01:01:15.524Z,19.03
2023-10-28T01:02:18.971Z,19.00
2023-10-28T01:03:21.406Z,19.03
2023-10-28T01:04:23.322Z,18.99
2023-10-28T01:05:25.203Z,19.00
2023-10-28T01:06:27.580Z,18.97
2023-10-28T01:07:30.836Z,19.03
2023-10-28T01:08:33.150Z,19.04
2023-10-28T01:09:48.075Z,19.04
2023-10-28T01:10:49.870Z,19.02
2023-10-28T01:11:55.102Z,19.04
2023-10-28T01:12:57.349Z,18.95
2023-10-28T01:13:59.843Z,18.99
2023-10-28T01:15:03.785Z,19.02
2023-10-28T01:16:09.451Z,19.00
2023-10-28T01:17:14.651Z,19.03
2023-10-28T01:18:16.455Z,18.95
2023-10-28T01:19:18.289Z,19.01
2023-10-28T01:20:20.173Z,18.95
2023-10-28T01:21:22.599Z,18.98
2023-10-28T01:22:30.667Z,18.97
2023-10-28T01:23:32.782Z,19.00
2023-10-28T01:24:36.200Z,18.92
2023-10-28T01:25:38.002Z,18.98
2023-10-28T01:26:39.886Z,18.98
2023-10-28T01:27:44.879Z,18.91
2023-10-28T01:28:46.806Z,18.92
2023-10-28T01:29:48.994Z,18.90
2023-10-28T01:30:50.719Z,18.94
2023-10-28T01:31:52.565Z,18.95
2023-10-28T01:32:54.371Z,18.95
2023-10-28T01:33:56.106Z,18.95
2023-10-28T01:34:58.073Z,18.73
2023-10-28T01:35:59.845Z,18.94
2023-10-28T01:37:03.939Z,18.92
2023-10-28T01:38:07.907Z,18.91
2023-10-28T01:39:09.711Z,18.93
2023-10-28T01:40:15.578Z,18.88
2023-10-28T01:41:18.040Z,18.95
2023-10-28T01:42:22.332Z,18.92
2023-10-28T01:43:24.428Z,18.88
2023-10-28T01:44:26.493Z,18.92
2023-10-28T01:45:28.361Z,18.92
2023-10-28T01:46:30.805Z,18.85
2023-10-28T01:47:32.870Z,18.91
2023-10-28T01:48:34.670Z,18.89
2023-10-28T01:49:37.353Z,18.88
2023-10-28T01:50:39.232Z,18.88
2023-10-28T01:51:41.041Z,18.86
2023-10-28T01:52:44.293Z,18.89
2023-10-28T01:53:47.308Z,18.89
2023-10-28T01:54:49.064Z,18.88
2023-10-28T01:55:50.883Z,18.87
2023-10-28T01:56:52.761Z,18.87
2023-10-28T01:57:54.552Z,18.75
2023-10-28T01:58:56.706Z,18.85
2023-10-28T01:59:59.424Z,18.86
2023-10-28T02:01:01.214Z,18.87
2023-10-28T02:02:04.123Z,18.80
2023-10-28T02:03:09.358Z,18.85
2023-10-28T02:04:11.656Z,18.87
2023-10-28T02:05:14.063Z,18.87
2023-10-28T02:06:15.999Z,18.87
2023-10-28T02:07:17.698Z,18.80
2023-10-28T02:08:20.121Z,18.85
2023-10-28T02:09:22.048Z,18.84
2023-10-28T02:10:25.268Z,18.84
2023-10-28T02:11:27.032Z,18.84
2023-10-28T02:12:28.997Z,18.85
2023-10-28T02:13:31.345Z,18.84
2023-10-28T02:14:33.674Z,18.84
2023-10-28T02:15:35.565Z,18.84
2023-10-28T02:16:38.466Z,18.84
2023-10-28T02:17:40.731Z,18.83
2023-10-28T02:18:42.705Z,18.77
2023-10-28T02:19:44.566Z,18.83
2023-10-28T02:20:46.878Z,18.83
2023-10-28T02:22:02.773Z,18.81
2023-10-28T02:23:15.158Z,18.86
2023-10-28T02:24:20.545Z,18.86
2023-10-28T02:25:24.302Z,18.82
2023-10-28T02:26:26.009Z,18.84
2023-10-28T02:27:28.112Z,18.83
2023-10-28T02:28:30.487Z,18.76
2023-10-28T02:29:32.300Z,18.77
2023-10-28T02:30:38.458Z,18.79
2023-10-28T02:31:40.353Z,18.80
2023-10-28T02:32:42.377Z,18.80
2023-10-28T02:33:44.512Z,18.80
2023-10-28T02:34:46.720Z,18.81
2023-10-28T02:35:48.971Z,18.80
2023-10-28T02:36:51.245Z,18.74
2023-10-28T02:37:53.008Z,18.79
2023-10-28T02:38:54.883Z,18.73
2023-10-28T02:39:58.698Z,18.80
2023-10-28T02:41:01.507Z,18.75
2023-10-28T02:42:03.450Z,18.79
2023-10-28T02:43:05.255Z,18.75
2023-10-28T02:44:07.142Z,18.78
2023-10-28T02:45:11.078Z,18.74
2023-10-28T02:46:22.196Z,18.79
2023-10-28T02:47:24.764Z,18.74
2023-10-28T02:48:26.606Z,18.81
2023-10-28T02:49:28.857Z,18.70
2023-10-28T02:50:30.811Z,18.78
2023-10-28T02:51:33.176Z,18.76
2023-10-28T02:52:35.232Z,18.71
2023-10-28T02:53:36.973Z,18.77
2023-10-28T02:54:39.385Z,18.77
2023-10-28T02:55:41.087Z,18.74
2023-10-28T02:56:42.968Z,18.75
2023-10-28T02:57:44.786Z,18.75
2023-10-28T02:58:46.572Z,18.70
2023-10-28T02:59:48.414Z,18.71
2023-10-28T03:00:50.157Z,18.70
2023-10-28T03:01:51.891Z,18.74
2023-10-28T03:02:56.490Z,18.72
2023-10-28T03:03:58.486Z,18.75
2023-10-28T03:05:00.286Z,18.75
2023-10-28T03:06:02.532Z,18.69
2023-10-28T03:07:04.612Z,18.73
2023-10-28T03:08:06.395Z,18.70
2023-10-28T03:09:08.212Z,18.72
2023-10-28T03:10:11.382Z,18.72
2023-10-28T03:11:13.858Z,18.73
2023-10-28T03:12:16.904Z,18.74
2023-10-28T03:13:18.836Z,18.72
2023-10-28T03:14:20.741Z,18.73
2023-10-28T03:15:23.012Z,18.63
2023-10-28T03:16:26.438Z,18.73
2023-10-28T03:17:28.335Z,18.73
2023-10-28T03:18:31.143Z,18.72
2023-10-28T03:19:32.843Z,18.72
2023-10-28T03:20:34.852Z,18.72
2023-10-28T03:21:36.748Z,18.72
2023-10-28T03:22:39.369Z,18.70
2023-10-28T03:23:41.088Z,18.64
2023-10-28T03:24:42.799Z,18.64
2023-10-28T03:25:45.055Z,18.71
2023-10-28T03:26:46.774Z,18.70
2023-10-28T03:27:48.579Z,18.58
2023-10-28T03:28:50.774Z,18.66
2023-10-28T03:29:53.498Z,18.62
2023-10-28T03:30:55.239Z,18.66
2023-10-28T03:31:57.213Z,18.69
2023-10-28T03:32:59.819Z,18.69
2023-10-28T03:34:01.635Z,18.69
2023-10-28T03:35:03.700Z,18.70
2023-10-28T03:36:11.577Z,18.67
2023-10-28T03:37:13.268Z,18.70
2023-10-28T03:38:15.103Z,18.62
2023-10-28T03:39:18.671Z,18.69
2023-10-28T03:40:20.496Z,18.69
2023-10-28T03:41:22.294Z,18.60
2023-10-28T03:42:24.017Z,18.53
2023-10-28T03:43:26.197Z,18.68
2023-10-28T03:44:27.898Z,18.65
2023-10-28T03:45:29.681Z,18.67
2023-10-28T03:46:31.432Z,18.67
2023-10-28T03:47:33.131Z,18.65
2023-10-28T03:48:35.526Z,18.66
2023-10-28T03:49:37.728Z,18.64
2023-10-28T03:50:39.488Z,18.66
2023-10-28T03:51:41.823Z,18.62
2023-10-28T03:52:43.726Z,18.66
2023-10-28T03:53:46.191Z,18.66
2023-10-28T03:54:47.977Z,18.65
2023-10-28T03:55:49.822Z,18.60
2023-10-28T03:56:51.568Z,18.66
2023-10-28T03:57:54.670Z,18.65
2023-10-28T03:58:56.417Z,18.59
2023-10-28T03:59:59.502Z,18.66
2023-10-28T04:01:01.330Z,18.65
2023-10-28T04:02:04.952Z,18.61
2023-10-28T04:03:07.046Z,18.62
2023-10-28T04:04:08.888Z,18.65
2023-10-28T04:05:10.782Z,18.64
2023-10-28T04:06:12.686Z,18.60
2023-10-28T04:07:14.386Z,18.51
2023-10-28T04:08:16.224Z,18.61
2023-10-28T04:09:18.130Z,18.63
2023-10-28T04:10:20.091Z,18.59
2023-10-28T04:11:21.772Z,18.62
2023-10-28T04:12:23.908Z,18.62
2023-10-28T04:13:25.790Z,18.61
2023-10-28T04:14:27.762Z,18.63
2023-10-28T04:15:29.531Z,18.59
2023-10-28T04:16:31.425Z,18.62
2023-10-28T04:17:33.485Z,18.54
2023-10-28T04:18:35.328Z,18.62
2023-10-28T04:19:37.203Z,18.42
2023-10-28T04:20:39.582Z,18.62
2023-10-28T04:21:41.501Z,18.61
2023-10-28T04:22:43.304Z,18.59
2023-10-28T04:23:45.154Z,18.61
2023-10-28T04:24:46.832Z,18.62
2023-10-28T04:25:48.949Z,18.57
2023-10-28T04:26:50.908Z,18.55
2023-10-28T04:27:52.618Z,18.40
2023-10-28T04:28:55.295Z,18.56
2023-10-28T04:29:57.181Z,18.60
2023-10-28T04:30:59.899Z,18.57
2023-10-28T04:32:02.223Z,18.56
2023-10-28T04:33:05.477Z,18.60
2023-10-28T04:34:07.212Z,18.61
2023-10-28T04:35:24.003Z,18.62
2023-10-28T04:36:29.370Z,18.65
2023-10-28T04:37:31.165Z,18.60
2023-10-28T04:38:32.952Z,18.61
2023-10-28T04:39:34.673Z,18.61
2023-10-28T04:40:37.307Z,18.61
2023-10-28T04:41:39.009Z,18.60
2023-10-28T04:42:40.712Z,18.58
2023-10-28T04:43:42.546Z,18.59
2023-10-28T04:44:44.731Z,18.44
2023-10-28T04:45:46.655Z,18.53
2023-10-28T04:46:48.413Z,18.54
2023-10-28T04:47:51.459Z,18.53
2023-10-28T04:48:53.535Z,18.55
2023-10-28T04:49:55.280Z,18.59
2023-10-28T04:50:57.073Z,18.55
2023-10-28T04:51:58.845Z,18.48
2023-10-28T04:53:00.660Z,18.59
2023-10-28T04:54:02.758Z,18.54
2023-10-28T04:55:04.857Z,18.60
2023-10-28T04:56:09.728Z,18.60
2023-10-28T04:57:11.582Z,18.60
2023-10-28T04:58:13.558Z,18.60
2023-10-28T04:59:15.252Z,18.60
2023-10-28T05:00:17.960Z,18.60
2023-10-28T05:01:19.798Z,18.60
2023-10-28T05:02:22.068Z,18.60
2023-10-28T05:03:23.811Z,18.60
2023-10-28T05:04:25.710Z,18.60
2023-10-28T05:05:27.872Z,18.60
2023-10-28T05:06:29.593Z,18.60
2023-10-28T05:07:31.300Z,18.60
2023-10-28T05:08:33.069Z,18.54
2023-10-28T05:09:36.468Z,18.59
2023-10-28T05:10:38.275Z,18.54
2023-10-28T05:11:40.050Z,18.60
2023-10-28T05:12:41.870Z,18.59
2023-10-28T05:13:43.928Z,18.54
2023-10-28T05:14:48.208Z,18.52
2023-10-28T05:15:50.002Z,18.60
2023-10-28T05:16:53.983Z,18.52
2023-10-28T05:17:55.791Z,18.60
2023-10-28T05:18:57.575Z,18.56
2023-10-28T05:19:59.322Z,18.59
2023-10-28T05:21:01.039Z,18.56
2023-10-28T05:22:05.016Z,18.55
2023-10-28T05:23:06.817Z,18.56
2023-10-28T05:24:08.812Z,18.59
2023-10-28T05:25:10.679Z,18.57
2023-10-28T05:26:12.444Z,18.59
2023-10-28T05:27:14.446Z,18.53
2023-10-28T05:28:16.284Z,18.46
2023-10-28T05:29:18.105Z,18.52
2023-10-28T05:30:19.917Z,18.59
2023-10-28T05:31:22.481Z,18.57
2023-10-28T05:32:24.438Z,18.58
2023-10-28T05:33:26.291Z,18.53
2023-10-28T05:34:28.039Z,18.57
2023-10-28T05:35:29.862Z,18.58
2023-10-28T05:36:31.581Z,18.56
2023-10-28T05:37:34.516Z,18.52
2023-10-28T05:38:36.264Z,18.57
2023-10-28T05:39:41.591Z,18.50
2023-10-28T05:40:43.561Z,18.58
2023-10-28T05:41:45.376Z,18.51
2023-10-28T05:42:47.224Z,18.56
2023-10-28T05:43:50.003Z,18.57
2023-10-28T05:44:52.005Z,18.57
2023-10-28T05:45:53.985Z,18.56
2023-10-28T05:46:56.922Z,18.56
2023-10-28T05:47:59.216Z,18.56
2023-10-28T05:49:01.842Z,18.57
2023-10-28T05:50:06.457Z,18.56
2023-10-28T05:51:10.570Z,18.57
2023-10-28T05:52:14.240Z,18.55
2023-10-28T05:53:15.978Z,18.57
2023-10-28T05:54:17.817Z,18.52
2023-10-28T05:55:19.693Z,18.56
2023-10-28T05:56:21.650Z,18.56
2023-10-28T05:57:23.371Z,18.56
2023-10-28T05:58:25.691Z,18.55
2023-10-28T05:59:27.599Z,18.54
2023-10-28T06:00:30.101Z,18.55
2023-10-28T06:01:32.524Z,18.55
2023-10-28T06:02:34.368Z,18.55
2023-10-28T06:03:36.318Z,18.47
2023-10-28T06:04:38.473Z,18.55
2023-10-28T06:05:40.327Z,18.53
2023-10-28T06:06:42.543Z,18.50
2023-10-28T06:07:49.087Z,18.54
2023-10-28T06:08:51.059Z,18.59
2023-10-28T06:09:52.775Z,18.58
2023-10-28T06:10:54.507Z,18.54
2023-10-28T06:11:56.317Z,18.55
2023-10-28T06:12:58.434Z,18.60
2023-10-28T06:14:00.383Z,18.63
2023-10-28T06:15:02.401Z,18.61
2023-10-28T06:16:04.480Z,18.66
2023-10-28T06:17:06.293Z,18.69
2023-10-28T06:18:09.088Z,18.71
2023-10-28T06:19:11.552Z,18.69
2023-10-28T06:20:13.322Z,18.77
2023-10-28T06:21:17.933Z,18.81
2023-10-28T06:22:19.710Z,18.84
2023-10-28T06:23:21.606Z,18.84
2023-10-28T06:24:23.436Z,18.90
2023-10-28T06:25:25.655Z,18.93
2023-10-28T06:26:27.357Z,18.97
2023-10-28T06:27:29.108Z,18.93
2023-10-28T06:28:30.959Z,19.02
2023-10-28T06:29:33.076Z,19.06
2023-10-28T06:30:35.002Z,19.07
2023-10-28T06:31:39.906Z,19.13
2023-10-28T06:32:42.559Z,19.17
2023-10-28T06:33:44.329Z,19.20
2023-10-28T06:34:46.149Z,19.23
2023-10-28T06:35:48.494Z,19.27
2023-10-28T06:36:50.475Z,19.22
2023-10-28T06:37:52.216Z,19.32
2023-10-28T06:38:56.970Z,19.35
2023-10-28T06:39:59.717Z,19.38
2023-10-28T06:41:01.467Z,19.41
2023-10-28T06:42:05.220Z,19.44
2023-10-28T06:43:12.287Z,19.48
2023-10-28T06:44:15.077Z,19.52
2023-10-28T06:45:16.877Z,19.52
2023-10-28T06:46:18.622Z,19.53
2023-10-28T06:47:21.619Z,19.56
2023-10-28T06:48:23.932Z,19.59
2023-10-28T06:49:25.668Z,19.60
2023-10-28T06:50:27.611Z,19.63
2023-10-28T06:51:29.566Z,19.65
2023-10-28T06:52:32.353Z,19.67
2023-10-28T06:53:34.217Z,19.68
2023-10-28T06:54:36.036Z,19.67
2023-10-28T06:55:37.860Z,19.69
2023-10-28T06:56:39.608Z,19.72
2023-10-28T06:57:42.724Z,19.74
2023-10-28T06:58:44.557Z,19.76
2023-10-28T06:59:46.495Z,19.76
2023-10-28T07:00:48.454Z,19.72
2023-10-28T07:01:50.941Z,19.79
2023-10-28T07:02:52.702Z,19.79
2023-10-28T07:03:54.488Z,19.77
2023-10-28T07:04:56.555Z,19.81
2023-10-28T07:05:58.350Z,19.79
2023-10-28T07:07:00.150Z,19.83
2023-10-28T07:08:02.000Z,19.84
2023-10-28T07:09:04.691Z,19.85
2023-10-28T07:10:07.519Z,19.85
2023-10-28T07:11:09.356Z,19.79
2023-10-28T07:12:11.187Z,19.81
2023-10-28T07:13:13.495Z,19.87
2023-10-28T07:14:15.314Z,19.87
2023-10-28T07:15:17.175Z,19.82
2023-10-28T07:16:21.490Z,19.86
2023-10-28T07:17:23.924Z,19.89
2023-10-28T07:18:25.663Z,19.89
2023-10-28T07:19:27.413Z,19.90
2023-10-28T07:20:29.410Z,19.89
2023-10-28T07:21:31.103Z,19.89
2023-10-28T07:22:32.948Z,19.90
2023-10-28T07:23:34.832Z,19.90
2023-10-28T07:24:36.689Z,19.86
2023-10-28T07:25:38.438Z,19.90
2023-10-28T07:26:40.248Z,19.85
2023-10-28T07:27:42.059Z,19.89
2023-10-28T07:28:43.933Z,19.90
2023-10-28T07:29:46.039Z,19.91
2023-10-28T07:30:51.736Z,19.90
2023-10-28T07:31:53.552Z,19.91
2023-10-28T07:32:55.349Z,19.89
2023-10-28T07:33:57.675Z,19.92
2023-10-28T07:34:59.814Z,19.88
2023-10-28T07:36:04.395Z,19.90
2023-10-28T07:37:06.128Z,19.91
2023-10-28T07:38:07.984Z,19.91
2023-10-28T07:39:10.538Z,19.91
2023-10-28T07:40:13.228Z,19.92
2023-10-28T07:41:15.308Z,19.89
2023-10-28T07:42:17.297Z,19.86
2023-10-28T07:43:19.475Z,19.89
2023-10-28T07:44:22.389Z,19.92
2023-10-28T07:45:25.687Z,19.93
2023-10-28T07:46:27.835Z,19.90
2023-10-28T07:47:29.834Z,19.94
2023-10-28T07:48:31.716Z,19.87
2023-10-28T07:49:33.898Z,19.95
2023-10-28T07:50:36.755Z,19.94
2023-10-28T07:51:38.690Z,19.96
2023-10-28T07:52:40.518Z,19.95
2023-10-28T07:53:42.257Z,19.95
2023-10-28T07:54:44.352Z,19.95
2023-10-28T07:55:46.041Z,19.85
2023-10-28T07:56:47.801Z,19.93
2023-10-28T07:57:49.487Z,19.95
2023-10-28T07:58:53.229Z,19.96
2023-10-28T07:59:56.824Z,19.96
2023-10-28T08:00:58.603Z,19.96
2023-10-28T08:02:01.526Z,19.90
2023-10-28T08:03:04.575Z,19.96
2023-10-28T08:04:06.965Z,19.91
2023-10-28T08:05:09.241Z,19.95
2023-10-28T08:06:20.220Z,19.93
2023-10-28T08:07:30.147Z,20.00
2023-10-28T08:08:32.537Z,19.95
2023-10-28T08:09:34.321Z,19.93
2023-10-28T08:10:36.069Z,19.96
2023-10-28T08:11:37.989Z,19.97
2023-10-28T08:12:41.110Z,19.90
2023-10-28T08:13:44.021Z,19.90
2023-10-28T08:14:48.330Z,19.95
2023-10-28T08:15:53.927Z,19.90
2023-10-28T08:16:57.675Z,19.97
2023-10-28T08:17:59.918Z,19.97
2023-10-28T08:19:02.531Z,19.96
2023-10-28T08:20:07.463Z,19.96
2023-10-28T08:21:10.953Z,19.97
2023-10-28T08:22:13.637Z,19.98
2023-10-28T08:23:15.384Z,19.96
2023-10-28T08:24:17.769Z,19.94
2023-10-28T08:25:19.709Z,19.96
2023-10-28T08:26:21.461Z,19.93
2023-10-28T08:27:23.239Z,19.96
2023-10-28T08:28:27.645Z,19.97
2023-10-28T08:29:29.493Z,19.97
2023-10-28T08:30:31.299Z,19.86
2023-10-28T08:31:33.155Z,19.76
2023-10-28T08:32:35.089Z,19.97
2023-10-28T08:33:38.295Z,19.94
2023-10-28T08:34:40.244Z,19.91
2023-10-28T08:35:42.170Z,19.94
2023-10-28T08:36:44.126Z,19.95
2023-10-28T08:37:45.827Z,19.97
2023-10-28T08:38:49.195Z,19.92
2023-10-28T08:39:51.241Z,19.97
2023-10-28T08:40:53.028Z,19.96
2023-10-28T08:41:55.229Z,19.91
2023-10-28T08:42:59.673Z,19.95
2023-10-28T08:44:05.597Z,19.87
2023-10-28T08:45:10.121Z,19.97
2023-10-28T08:46:13.586Z,19.96
2023-10-28T08:47:18.032Z,19.97
2023-10-28T08:48:22.122Z,19.97
2023-10-28T08:49:24.561Z,19.94
2023-10-28T08:50:26.650Z,19.89
2023-10-28T08:51:28.480Z,19.93
2023-10-28T08:52:33.877Z,19.94
2023-10-28T08:53:38.619Z,19.91
2023-10-28T08:54:41.168Z,19.97
2023-10-28T08:55:45.151Z,19.92
2023-10-28T08:56:48.667Z,19.96
2023-10-28T08:57:50.976Z,19.97
2023-10-28T08:58:56.495Z,19.91
2023-10-28T08:59:58.373Z,19.92
2023-10-28T09:01:00.959Z,19.93
2023-10-28T09:02:09.220Z,19.97
2023-10-28T09:03:12.254Z,19.97
2023-10-28T09:04:15.771Z,19.97
2023-10-28T09:05:18.327Z,19.95
2023-10-28T09:06:21.494Z,19.95
2023-10-28T09:07:23.321Z,19.96
2023-10-28T09:08:25.843Z,19.96
2023-10-28T09:09:28.900Z,19.90
2023-10-28T09:10:31.348Z,19.93
2023-10-28T09:11:33.116Z,19.95
2023-10-28T09:12:35.642Z,19.95
2023-10-28T09:13:38.194Z,19.95
2023-10-28T09:14:40.355Z,19.94
2023-10-28T09:15:42.865Z,19.94
2023-10-28T09:16:44.901Z,19.95
2023-10-28T09:17:46.650Z,19.94
2023-10-28T09:18:51.972Z,19.95
2023-10-28T09:19:54.165Z,19.95
2023-10-28T09:20:56.129Z,19.96
2023-10-28T09:21:59.892Z,19.78
2023-10-28T09:23:01.745Z,19.95
2023-10-28T09:24:04.056Z,19.95
2023-10-28T09:25:07.127Z,19.93
2023-10-28T09:26:09.437Z,19.89
2023-10-28T09:27:11.912Z,19.95
2023-10-28T09:28:17.238Z,19.93
2023-10-28T09:29:31.609Z,19.91
2023-10-28T09:30:43.542Z,19.99
2023-10-28T09:31:45.637Z,20.00
2023-10-28T09:32:47.820Z,19.98
2023-10-28T09:33:51.241Z,19.96
2023-10-28T09:34:54.109Z,19.95
2023-10-28T09:35:55.956Z,19.96
2023-10-28T09:36:58.313Z,19.85
2023-10-28T09:38:00.324Z,19.95
2023-10-28T09:39:03.528Z,19.95
2023-10-28T09:40:07.499Z,19.95
2023-10-28T09:41:09.830Z,19.96
2023-10-28T09:42:13.857Z,19.95
2023-10-28T09:43:16.332Z,19.96
2023-10-28T09:44:18.622Z,19.96
2023-10-28T09:45:20.564Z,19.95
2023-10-28T09:46:27.791Z,19.87
2023-10-28T09:47:39.447Z,19.97
2023-10-28T09:48:49.389Z,19.97
2023-10-28T09:49:59.693Z,19.97
2023-10-28T09:51:01.722Z,19.88
2023-10-28T09:52:08.499Z,19.96
2023-10-28T09:53:14.967Z,19.98
2023-10-28T09:54:23.624Z,19.97
2023-10-28T09:55:31.315Z,19.97
2023-10-28T09:56:38.585Z,19.98
2023-10-28T09:57:41.386Z,19.98
2023-10-28T09:58:50.508Z,19.95
2023-10-28T09:59:53.607Z,19.90
2023-10-28T10:01:19.339Z,19.99
2023-10-28T10:02:26.919Z,20.04
2023-10-28T10:03:53.277Z,20.03
2023-10-28T10:05:21.383Z,20.09
2023-10-28T10:06:24.452Z,20.08
2023-10-28T10:07:26.744Z,20.02
2023-10-28T10:08:28.986Z,20.00
2023-10-28T10:09:49.448Z,19.98
2023-10-28T10:10:57.919Z,20.01
2023-10-28T10:11:59.690Z,20.01
2023-10-28T10:13:03.292Z,19.95
2023-10-28T10:14:12.709Z,19.96
2023-10-28T10:15:15.020Z,19.99
2023-10-28T10:16:44.344Z,20.02
2023-10-28T10:18:19.515Z,20.02
2023-10-28T10:19:28.193Z,20.08
2023-10-28T10:20:34.075Z,19.97
2023-10-28T10:21:35.842Z,19.99
2023-10-28T10:22:40.145Z,19.99
2023-10-28T10:23:45.150Z,20.00
2023-10-28T10:24:51.047Z,19.98
2023-10-28T10:25:55.906Z,19.91
2023-10-28T10:26:59.425Z,19.95
2023-10-28T10:28:24.395Z,20.03
2023-10-28T10:29:30.604Z,20.05
2023-10-28T10:30:35.346Z,20.00
2023-10-28T10:31:38.098Z,20.02
2023-10-28T10:32:51.055Z,20.02
2023-10-28T10:34:01.450Z,20.01
2023-10-28T10:35:11.366Z,20.03
2023-10-28T10:36:18.871Z,19.97
2023-10-28T10:37:24.338Z,20.05
2023-10-28T10:38:32.682Z,20.05
2023-10-28T10:39:44.633Z,20.06
2023-10-28T10:40:54.038Z,20.08
2023-10-28T10:42:00.318Z,20.08
2023-10-28T10:43:09.390Z,20.07
2023-10-28T10:44:27.167Z,20.12
2023-10-28T10:45:29.583Z,20.11
2023-10-28T10:46:31.399Z,20.09
2023-10-28T10:47:33.344Z,20.07
2023-10-28T10:48:35.164Z,20.02
2023-10-28T10:49:39.859Z,20.04
2023-10-28T10:50:43.041Z,20.01
2023-10-28T10:51:46.226Z,20.03
2023-10-28T10:52:50.689Z,19.98
2023-10-28T10:53:53.866Z,20.07
2023-10-28T10:55:00.739Z,20.07
2023-10-28T10:56:02.488Z,20.09
2023-10-28T10:57:04.915Z,20.08
2023-10-28T10:58:07.179Z,20.07
2023-10-28T10:59:09.058Z,20.01
2023-10-28T11:00:14.433Z,20.06
2023-10-28T11:01:16.766Z,20.04
2023-10-28T11:02:18.980Z,20.08
2023-10-28T11:03:23.134Z,20.02
2023-10-28T11:04:26.725Z,20.04
2023-10-28T11:05:33.159Z,20.07
2023-10-28T11:06:36.090Z,20.10
2023-10-28T11:07:37.809Z,20.10
2023-10-28T11:08:40.853Z,20.09
2023-10-28T11:09:43.451Z,20.09
2023-10-28T11:10:47.296Z,20.09
2023-10-28T11:11:49.359Z,20.09
2023-10-28T11:12:51.871Z,20.10
2023-10-28T11:13:53.664Z,20.09
2023-10-28T11:14:56.105Z,20.08
2023-10-28T11:15:58.644Z,20.09
2023-10-28T11:17:01.282Z,20.09
2023-10-28T11:18:03.352Z,20.05
2023-10-28T11:19:06.216Z,20.08
2023-10-28T11:20:11.275Z,20.03
2023-10-28T11:21:15.741Z,20.10
2023-10-28T11:22:18.596Z,20.10
2023-10-28T11:23:21.182Z,20.09
2023-10-28T11:24:23.406Z,20.09
2023-10-28T11:25:35.143Z,20.08
2023-10-28T11:26:38.231Z,20.11
2023-10-28T11:27:40.097Z,20.10
2023-10-28T11:28:41.833Z,20.10
2023-10-28T11:29:43.617Z,20.09
2023-10-28T11:30:54.199Z,20.01
2023-10-28T11:31:56.579Z,20.06
2023-10-28T11:32:58.382Z,20.09
2023-10-28T11:34:01.633Z,20.08
2023-10-28T11:35:03.784Z,19.94
2023-10-28T11:36:06.154Z,19.84
2023-10-28T11:37:12.051Z,20.07
2023-10-28T11:38:13.876Z,20.09
2023-10-28T11:39:17.765Z,20.01
2023-10-28T11:40:22.356Z,20.04
2023-10-28T11:41:24.811Z,20.09
2023-10-28T11:42:28.680Z,20.07
2023-10-28T11:43:30.592Z,20.02
2023-10-28T11:44:32.444Z,20.05
2023-10-28T11:45:35.939Z,20.07
2023-10-28T11:46:37.957Z,20.09
2023-10-28T11:47:39.726Z,20.08
2023-10-28T11:48:42.851Z,20.09
2023-10-28T11:49:45.051Z,20.03
2023-10-28T11:50:46.776Z,20.05
2023-10-28T11:51:48.489Z,20.04
2023-10-28T11:52:50.303Z,20.07
2023-10-28T11:53:52.881Z,20.06
2023-10-28T11:54:54.958Z,20.04
2023-10-28T11:55:56.971Z,20.07
2023-10-28T11:56:58.735Z,20.02
2023-10-28T11:58:00.438Z,19.99
2023-10-28T11:59:03.286Z,20.01
2023-10-28T12:00:06.203Z,20.07
2023-10-28T12:01:08.289Z,19.96
2023-10-28T12:02:10.467Z,20.06
2023-10-28T12:03:17.681Z,20.07
2023-10-28T12:04:19.815Z,20.08
2023-10-28T12:05:21.686Z,19.88
2023-10-28T12:06:30.181Z,20.07
2023-10-28T12:07:32.652Z,20.08
2023-10-28T12:08:34.436Z,20.02
2023-10-28T12:09:38.733Z,20.07
2023-10-28T12:10:47.631Z,20.08
2023-10-28T12:11:50.830Z,20.09
2023-10-28T12:12:52.960Z,20.03
2023-10-28T12:13:58.255Z,20.07
2023-10-28T12:15:00.116Z,20.09
2023-10-28T12:16:01.889Z,20.05
2023-10-28T12:17:04.039Z,20.06
2023-10-28T12:18:06.368Z,20.04
2023-10-28T12:19:08.703Z,20.06
2023-10-28T12:20:10.692Z,20.07
2023-10-28T12:21:14.147Z,20.03
2023-10-28T12:22:15.987Z,20.03
2023-10-28T12:23:17.805Z,20.07
2023-10-28T12:24:19.863Z,20.07
2023-10-28T12:25:21.720Z,20.07
2023-10-28T12:26:23.551Z,20.06
2023-10-28T12:27:25.343Z,20.07
2023-10-28T12:28:27.948Z,20.03
2023-10-28T12:29:29.777Z,20.07
2023-10-28T12:30:31.532Z,20.07
2023-10-28T12:31:33.554Z,20.07
2023-10-28T12:32:35.549Z,20.07
2023-10-28T12:33:39.067Z,20.02
2023-10-28T12:34:41.328Z,20.08
2023-10-28T12:35:43.079Z,20.08
2023-10-28T12:36:48.080Z,20.02
2023-10-28T12:37:49.947Z,20.09
2023-10-28T12:38:51.629Z,20.07
2023-10-28T12:39:53.964Z,20.06
2023-10-28T12:40:55.676Z,20.08
2023-10-28T12:41:57.683Z,20.07
2023-10-28T12:42:59.485Z,19.97
2023-10-28T12:44:01.342Z,20.00
2023-10-28T12:45:10.786Z,20.06
2023-10-28T12:46:12.611Z,20.08
2023-10-28T12:47:14.515Z,20.08
2023-10-28T12:48:16.266Z,20.08
2023-10-28T12:49:17.984Z,20.04
2023-10-28T12:50:20.366Z,20.00
2023-10-28T12:51:22.254Z,20.08
2023-10-28T12:52:24.004Z,20.07
2023-10-28T12:53:25.828Z,20.07
2023-10-28T12:54:29.109Z,20.01
2023-10-28T12:55:31.565Z,20.06
2023-10-28T12:56:33.959Z,20.07
2023-10-28T12:57:35.724Z,20.07
2023-10-28T12:58:37.952Z,20.08
2023-10-28T12:59:40.165Z,20.07
2023-10-28T13:00:42.161Z,20.06
2023-10-28T13:01:43.949Z,20.01
2023-10-28T13:02:46.365Z,20.05
2023-10-28T13:03:48.276Z,20.07
2023-10-28T13:04:50.784Z,20.06
2023-10-28T13:05:52.906Z,20.08
2023-10-28T13:06:54.622Z,20.02
2023-10-28T13:07:56.441Z,20.06
2023-10-28T13:08:58.157Z,20.01
2023-10-28T13:10:00.073Z,20.06
2023-10-28T13:11:01.932Z,20.06
2023-10-28T13:12:04.257Z,20.04
2023-10-28T13:13:06.133Z,20.05
2023-10-28T13:14:08.453Z,19.85
2023-10-28T13:15:10.521Z,20.06
2023-10-28T13:16:12.478Z,20.05
2023-10-28T13:17:14.787Z,19.98
2023-10-28T13:18:16.567Z,20.05
2023-10-28T13:19:18.276Z,20.06
2023-10-28T13:20:20.110Z,20.05
2023-10-28T13:21:22.024Z,20.06
2023-10-28T13:22:23.926Z,20.04
2023-10-28T13:23:25.689Z,20.06
2023-10-28T13:24:29.854Z,20.06
2023-10-28T13:25:32.329Z,20.07
2023-10-28T13:26:34.235Z,20.07
2023-10-28T13:27:36.707Z,20.06
2023-10-28T13:28:38.799Z,20.06
2023-10-28T13:29:40.559Z,20.06
2023-10-28T13:30:42.677Z,19.98
2023-10-28T13:31:44.537Z,20.06
2023-10-28T13:32:55.355Z,20.06